createdAt,value
2022-11-09T00:01:24.376Z,98516.00
2022-11-09T00:02:57.446Z,98512.00
2022-11-09T00:04:30.707Z,98523.00
2022-11-09T00:06:03.813Z,98523.00
2022-11-09T00:07:36.935Z,98516.00
2022-11-09T00:09:11.465Z,98511.00
2022-11-09T00:10:44.545Z,98510.00
2022-11-09T00:12:17.618Z,98505.00
2022-11-09T00:13:50.875Z,98505.00
2022-11-09T00:15:23.967Z,98503.00
2022-11-09T00:16:57.388Z,98495.00
2022-11-09T00:18:30.853Z,98502.00
2022-11-09T00:20:04.363Z,98501.00
2022-11-09T00:21:37.520Z,98496.00
2022-11-09T00:23:10.685Z,98500.00
2022-11-09T00:24:45.095Z,98514.00
2022-11-09T00:26:20.345Z,98505.00
2022-11-09T00:27:55.362Z,98502.00
2022-11-09T00:29:29.392Z,98495.00
2022-11-09T00:31:05.360Z,98497.00
2022-11-09T00:32:38.566Z,98494.00
2022-11-09T00:34:13.121Z,98497.00
2022-11-09T00:35:48.670Z,98486.00
2022-11-09T00:37:21.992Z,98485.00
2022-11-09T00:38:58.306Z,98496.00
2022-11-09T00:40:32.849Z,98503.00
2022-11-09T00:42:07.210Z,98495.00
2022-11-09T00:43:41.018Z,98494.00
2022-11-09T00:45:14.424Z,98496.00
2022-11-09T00:46:47.592Z,98497.00
2022-11-09T00:48:20.768Z,98500.00
2022-11-09T00:49:54.000Z,98494.00
2022-11-09T00:51:27.179Z,98485.00
2022-11-09T00:53:00.436Z,98492.00
2022-11-09T00:54:33.597Z,98494.00
2022-11-09T00:56:11.807Z,98490.00
2022-11-09T00:57:45.644Z,98497.00
2022-11-09T00:59:19.284Z,98492.00
2022-11-09T01:00:54.384Z,98494.00
2022-11-09T01:02:27.638Z,98489.00
2022-11-09T01:04:03.911Z,98497.00
2022-11-09T01:05:40.407Z,98499.00
2022-11-09T01:07:13.643Z,98504.00
2022-11-09T01:08:48.744Z,98503.00
2022-11-09T01:10:21.719Z,98499.00
2022-11-09T01:11:55.319Z,98506.00
2022-11-09T01:13:28.788Z,98499.00
2022-11-09T01:15:02.168Z,98492.00
2022-11-09T01:16:35.300Z,98499.00
2022-11-09T01:18:10.742Z,98499.00
2022-11-09T01:19:44.163Z,98490.00
2022-11-09T01:21:17.466Z,98487.00
2022-11-09T01:22:50.623Z,98496.00
2022-11-09T01:24:23.878Z,98494.00
2022-11-09T01:26:00.011Z,98488.00
2022-11-09T01:27:35.358Z,98498.00
2022-11-09T01:29:11.789Z,98498.00
2022-11-09T01:30:44.030Z,98507.00
2022-11-09T01:32:17.183Z,98500.00
2022-11-09T01:33:50.572Z,98497.00
2022-11-09T01:35:23.770Z,98496.00
2022-11-09T01:36:59.137Z,98503.00
2022-11-09T01:38:32.464Z,98508.00
2022-11-09T01:40:08.629Z,98498.00
2022-11-09T01:41:42.066Z,98506.00
2022-11-09T01:43:20.188Z,98502.00
2022-11-09T01:45:27.116Z,98515.00
2022-11-09T01:47:05.714Z,98518.00
2022-11-09T01:48:46.503Z,98514.00
2022-11-09T01:50:31.042Z,98505.00
2022-11-09T01:52:11.493Z,98516.00
2022-11-09T01:53:51.385Z,98516.00
2022-11-09T01:55:24.936Z,98501.00
2022-11-09T01:57:05.280Z,98513.00
2022-11-09T01:58:46.998Z,98519.00
2022-11-09T02:00:20.756Z,98508.00
2022-11-09T02:01:55.077Z,98507.00
2022-11-09T02:03:36.556Z,98511.00
2022-11-09T02:05:17.237Z,98500.00
2022-11-09T02:06:52.858Z,98500.00
2022-11-09T02:08:27.254Z,98495.00
2022-11-09T02:10:07.277Z,98496.00
2022-11-09T02:11:41.477Z,98494.00
2022-11-09T02:13:18.533Z,98494.00
2022-11-09T02:14:55.714Z,98495.00
2022-11-09T02:16:31.044Z,98509.00
2022-11-09T02:18:06.318Z,98497.00
2022-11-09T02:19:39.467Z,98496.00
2022-11-09T02:21:14.058Z,98498.00
2022-11-09T02:22:47.525Z,98502.00
2022-11-09T02:24:20.917Z,98504.00
2022-11-09T02:25:58.184Z,98496.00
2022-11-09T02:27:31.952Z,98507.00
2022-11-09T02:29:11.061Z,98503.00
2022-11-09T02:30:49.166Z,98498.00
2022-11-09T02:32:27.502Z,98498.00
2022-11-09T02:34:08.376Z,98501.00
2022-11-09T02:35:41.560Z,98496.00
2022-11-09T02:37:28.486Z,98501.00
2022-11-09T02:39:03.143Z,98493.00
2022-11-09T02:40:40.896Z,98488.00
2022-11-09T02:42:21.137Z,98488.00
2022-11-09T02:43:57.382Z,98489.00
2022-11-09T02:45:29.771Z,98491.00
2022-11-09T02:47:02.882Z,98488.00
2022-11-09T02:48:37.013Z,98488.00
2022-11-09T02:50:11.325Z,98479.00
2022-11-09T02:51:44.866Z,98482.00
2022-11-09T02:53:19.495Z,98484.00
2022-11-09T02:54:53.528Z,98483.00
2022-11-09T02:56:26.695Z,98489.00
2022-11-09T02:58:00.395Z,98497.00
2022-11-09T02:59:33.691Z,98493.00
2022-11-09T03:01:07.403Z,98499.00
2022-11-09T03:02:42.924Z,98491.00
2022-11-09T03:04:16.118Z,98496.00
2022-11-09T03:05:49.364Z,98493.00
2022-11-09T03:07:21.858Z,98500.00
2022-11-09T03:08:56.423Z,98493.00
2022-11-09T03:10:29.715Z,98499.00
2022-11-09T03:12:22.445Z,98501.00
2022-11-09T03:13:55.837Z,98498.00
2022-11-09T03:15:29.212Z,98503.00
2022-11-09T03:17:02.357Z,98503.00
2022-11-09T03:18:35.584Z,98504.00
2022-11-09T03:20:10.743Z,98502.00
2022-11-09T03:21:45.794Z,98500.00
2022-11-09T03:23:19.210Z,98507.00
2022-11-09T03:24:54.015Z,98515.00
2022-11-09T03:26:27.839Z,98501.00
2022-11-09T03:28:02.026Z,98507.00
2022-11-09T03:29:35.583Z,98509.00
2022-11-09T03:31:09.590Z,98503.00
2022-11-09T03:32:48.059Z,98506.00
2022-11-09T03:34:23.484Z,98505.00
2022-11-09T03:35:56.651Z,98513.00
2022-11-09T03:37:29.078Z,98504.00
2022-11-09T03:39:02.653Z,98500.00
2022-11-09T03:40:37.497Z,98512.00
2022-11-09T03:42:10.793Z,98512.00
2022-11-09T03:43:45.447Z,98511.00
2022-11-09T03:45:18.774Z,98514.00
2022-11-09T03:46:52.070Z,98507.00
2022-11-09T03:48:25.448Z,98510.00
2022-11-09T03:49:58.617Z,98511.00
2022-11-09T03:51:32.202Z,98518.00
2022-11-09T03:53:05.408Z,98513.00
2022-11-09T03:54:37.706Z,98509.00
2022-11-09T03:56:12.238Z,98510.00
2022-11-09T03:57:46.989Z,98517.00
2022-11-09T03:59:20.137Z,98518.00
2022-11-09T04:00:53.362Z,98509.00
2022-11-09T04:02:26.669Z,98517.00
2022-11-09T04:03:59.914Z,98506.00
2022-11-09T04:05:33.129Z,98514.00
2022-11-09T04:07:06.497Z,98517.00
2022-11-09T04:08:39.688Z,98508.00
2022-11-09T04:10:12.851Z,98517.00
2022-11-09T04:11:47.382Z,98516.00
2022-11-09T04:13:21.013Z,98516.00
2022-11-09T04:14:54.525Z,98519.00
2022-11-09T04:16:27.837Z,98511.00
2022-11-09T04:18:03.451Z,98523.00
2022-11-09T04:19:36.993Z,98515.00
2022-11-09T04:21:10.173Z,98515.00
2022-11-09T04:22:42.488Z,98519.00
2022-11-09T04:24:15.924Z,98512.00
2022-11-09T04:25:48.075Z,98519.00
2022-11-09T04:27:26.216Z,98520.00
2022-11-09T04:28:59.502Z,98514.00
2022-11-09T04:30:36.761Z,98510.00
2022-11-09T04:32:10.204Z,98514.00
2022-11-09T04:33:44.577Z,98506.00
2022-11-09T04:35:18.073Z,98517.00
2022-11-09T04:36:51.457Z,98516.00
2022-11-09T04:38:24.711Z,98514.00
2022-11-09T04:39:57.920Z,98527.00
2022-11-09T04:41:31.353Z,98516.00
2022-11-09T04:43:09.298Z,98518.00
2022-11-09T04:44:42.489Z,98519.00
2022-11-09T04:46:15.618Z,98520.00
2022-11-09T04:47:49.377Z,98520.00
2022-11-09T04:49:22.778Z,98534.00
2022-11-09T04:51:02.164Z,98517.00
2022-11-09T04:52:35.427Z,98522.00
2022-11-09T04:54:08.761Z,98517.00
2022-11-09T04:55:42.558Z,98517.00
2022-11-09T04:57:15.689Z,98518.00
2022-11-09T04:58:50.177Z,98523.00
2022-11-09T05:00:23.606Z,98518.00
2022-11-09T05:01:56.798Z,98518.00
2022-11-09T05:03:29.986Z,98523.00
2022-11-09T05:05:03.134Z,98534.00
2022-11-09T05:06:35.474Z,98534.00
2022-11-09T05:08:09.876Z,98524.00
2022-11-09T05:09:43.158Z,98534.00
2022-11-09T05:11:16.619Z,98538.00
2022-11-09T05:12:49.756Z,98535.00
2022-11-09T05:14:24.364Z,98535.00
2022-11-09T05:16:01.280Z,98526.00
2022-11-09T05:17:34.420Z,98529.00
2022-11-09T05:19:07.662Z,98522.00
2022-11-09T05:20:40.901Z,98522.00
2022-11-09T05:22:31.794Z,98528.00
2022-11-09T05:24:05.494Z,98538.00
2022-11-09T05:25:37.661Z,98528.00
2022-11-09T05:27:10.850Z,98537.00
2022-11-09T05:28:44.825Z,98538.00
2022-11-09T05:30:19.598Z,98551.00
2022-11-09T05:31:53.338Z,98547.00
2022-11-09T05:33:27.113Z,98549.00
2022-11-09T05:35:00.248Z,98555.00
2022-11-09T05:36:34.232Z,98553.00
2022-11-09T05:38:07.442Z,98549.00
2022-11-09T05:39:40.612Z,98545.00
2022-11-09T05:41:14.573Z,98553.00
2022-11-09T05:42:48.543Z,98554.00
2022-11-09T05:44:21.734Z,98555.00
2022-11-09T05:45:56.319Z,98558.00
2022-11-09T05:47:30.178Z,98546.00
2022-11-09T05:49:03.430Z,98549.00
2022-11-09T05:50:36.736Z,98557.00
2022-11-09T05:52:29.921Z,98560.00
2022-11-09T05:54:03.556Z,98558.00
2022-11-09T05:55:37.217Z,98558.00
2022-11-09T05:57:10.398Z,98555.00
2022-11-09T05:58:44.136Z,98570.00
2022-11-09T06:00:18.181Z,98560.00
2022-11-09T06:01:52.900Z,98567.00
2022-11-09T06:03:25.946Z,98568.00
2022-11-09T06:04:59.854Z,98560.00
2022-11-09T06:06:33.083Z,98561.00
2022-11-09T06:08:07.468Z,98556.00
2022-11-09T06:09:40.657Z,98563.00
2022-11-09T06:11:22.880Z,98546.00
2022-11-09T06:12:56.657Z,98551.00
2022-11-09T06:14:29.824Z,98564.00
2022-11-09T06:16:06.337Z,98559.00
2022-11-09T06:17:40.870Z,98566.00
2022-11-09T06:19:14.209Z,98566.00
2022-11-09T06:20:47.394Z,98568.00
2022-11-09T06:22:20.562Z,98573.00
2022-11-09T06:23:53.878Z,98571.00
2022-11-09T06:25:27.753Z,98565.00
2022-11-09T06:27:00.972Z,98575.00
2022-11-09T06:28:34.978Z,98578.00
2022-11-09T06:30:09.743Z,98571.00
2022-11-09T06:31:43.772Z,98582.00
2022-11-09T06:33:18.877Z,98578.00
2022-11-09T06:34:52.285Z,98569.00
2022-11-09T06:36:25.568Z,98573.00
2022-11-09T06:37:58.759Z,98571.00
2022-11-09T06:39:31.916Z,98571.00
2022-11-09T06:41:05.224Z,98569.00
2022-11-09T06:42:38.509Z,98562.00
2022-11-09T06:44:12.066Z,98568.00
2022-11-09T06:45:45.528Z,98573.00
2022-11-09T06:47:18.824Z,98578.00
2022-11-09T06:48:54.743Z,98577.00
2022-11-09T06:50:30.173Z,98575.00
2022-11-09T06:52:03.460Z,98578.00
2022-11-09T06:53:37.892Z,98587.00
2022-11-09T06:55:11.395Z,98609.00
2022-11-09T06:56:44.516Z,98617.00
2022-11-09T06:58:17.848Z,98617.00
2022-11-09T06:59:50.966Z,98587.00
2022-11-09T07:01:29.104Z,98588.00
2022-11-09T07:03:02.648Z,98597.00
2022-11-09T07:04:37.306Z,98598.00
2022-11-09T07:06:13.031Z,98601.00
2022-11-09T07:07:46.606Z,98614.00
2022-11-09T07:09:19.974Z,98607.00
2022-11-09T07:10:53.280Z,98622.00
2022-11-09T07:12:26.621Z,98611.00
2022-11-09T07:14:01.219Z,98612.00
2022-11-09T07:15:36.422Z,98616.00
2022-11-09T07:17:09.506Z,98613.00
2022-11-09T07:18:43.900Z,98608.00
2022-11-09T07:20:19.538Z,98609.00
2022-11-09T07:21:52.800Z,98613.00
2022-11-09T07:23:26.141Z,98606.00
2022-11-09T07:24:59.457Z,98613.00
2022-11-09T07:26:32.723Z,98615.00
2022-11-09T07:28:07.498Z,98618.00
2022-11-09T07:29:41.057Z,98610.00
2022-11-09T07:31:14.206Z,98619.00
2022-11-09T07:33:07.865Z,98632.00
2022-11-09T07:34:40.563Z,98617.00
2022-11-09T07:36:20.760Z,98617.00
2022-11-09T07:37:54.793Z,98618.00
2022-11-09T07:39:27.992Z,98622.00
2022-11-09T07:41:02.181Z,98622.00
2022-11-09T07:42:35.396Z,98618.00
2022-11-09T07:44:08.957Z,98628.00
2022-11-09T07:45:42.641Z,98623.00
2022-11-09T07:47:18.463Z,98629.00
2022-11-09T07:48:51.747Z,98628.00
2022-11-09T07:50:24.075Z,98631.00
2022-11-09T07:51:59.656Z,98633.00
2022-11-09T07:53:33.261Z,98630.00
2022-11-09T07:55:08.001Z,98629.00
2022-11-09T07:56:41.186Z,98634.00
2022-11-09T07:58:16.588Z,98628.00
2022-11-09T07:59:53.476Z,98626.00
2022-11-09T08:01:27.237Z,98640.00
2022-11-09T08:03:01.798Z,98633.00
2022-11-09T08:04:35.145Z,98642.00
2022-11-09T08:06:09.679Z,98637.00
2022-11-09T08:07:45.773Z,98631.00
2022-11-09T08:09:19.441Z,98635.00
2022-11-09T08:10:53.076Z,98636.00
2022-11-09T08:12:26.413Z,98632.00
2022-11-09T08:13:59.674Z,98638.00
2022-11-09T08:15:33.431Z,98638.00
2022-11-09T08:17:06.675Z,98634.00
2022-11-09T08:18:39.881Z,98631.00
2022-11-09T08:20:13.047Z,98637.00
2022-11-09T08:21:47.156Z,98638.00
2022-11-09T08:23:22.632Z,98642.00
2022-11-09T08:24:55.842Z,98642.00
2022-11-09T08:26:29.011Z,98650.00
2022-11-09T08:28:03.266Z,98639.00
2022-11-09T08:29:36.412Z,98641.00
2022-11-09T08:31:10.394Z,98644.00
2022-11-09T08:32:45.398Z,98642.00
2022-11-09T08:34:19.124Z,98641.00
2022-11-09T08:35:53.506Z,98635.00
2022-11-09T08:37:26.821Z,98637.00
2022-11-09T08:39:01.392Z,98637.00
2022-11-09T08:40:35.121Z,98637.00
2022-11-09T08:42:09.213Z,98634.00
2022-11-09T08:43:42.381Z,98641.00
2022-11-09T08:45:16.089Z,98635.00
2022-11-09T08:46:49.305Z,98635.00
2022-11-09T08:48:22.817Z,98649.00
2022-11-09T08:49:56.347Z,98641.00
2022-11-09T08:51:29.612Z,98641.00
2022-11-09T08:53:04.013Z,98640.00
2022-11-09T08:54:38.752Z,98642.00
2022-11-09T08:56:12.929Z,98648.00
2022-11-09T08:57:46.104Z,98647.00
2022-11-09T08:59:19.405Z,98643.00
2022-11-09T09:00:52.818Z,98642.00
2022-11-09T09:02:26.129Z,98648.00
2022-11-09T09:03:59.261Z,98648.00
2022-11-09T09:05:32.689Z,98648.00
2022-11-09T09:07:06.499Z,98649.00
2022-11-09T09:08:40.174Z,98656.00
2022-11-09T09:10:14.853Z,98659.00
2022-11-09T09:11:48.381Z,98656.00
2022-11-09T09:13:22.592Z,98662.00
2022-11-09T09:14:55.814Z,98662.00
2022-11-09T09:16:29.801Z,98661.00
2022-11-09T09:18:04.187Z,98659.00
2022-11-09T09:19:37.511Z,98652.00
2022-11-09T09:21:11.944Z,98651.00
2022-11-09T09:22:45.639Z,98662.00
2022-11-09T09:24:18.889Z,98656.00
2022-11-09T09:25:57.698Z,98665.00
2022-11-09T09:27:32.034Z,98665.00
2022-11-09T09:29:08.433Z,98662.00
2022-11-09T09:30:41.539Z,98671.00
2022-11-09T09:32:14.758Z,98670.00
2022-11-09T09:33:48.397Z,98666.00
2022-11-09T09:35:21.605Z,98676.00
2022-11-09T09:36:54.858Z,98678.00
2022-11-09T09:38:29.252Z,98680.00
2022-11-09T09:40:02.410Z,98672.00
2022-11-09T09:41:46.277Z,98677.00
2022-11-09T09:43:30.843Z,98681.00
2022-11-09T09:45:09.665Z,98680.00
2022-11-09T09:46:50.120Z,98675.00
2022-11-09T09:48:37.869Z,98686.00
2022-11-09T09:50:15.481Z,98682.00
2022-11-09T09:51:56.268Z,98682.00
2022-11-09T09:53:36.284Z,98684.00
2022-11-09T09:55:23.099Z,98685.00
2022-11-09T09:57:02.067Z,98675.00
2022-11-09T09:58:42.786Z,98687.00
2022-11-09T10:00:24.055Z,98687.00
2022-11-09T10:01:58.420Z,98681.00
2022-11-09T10:03:32.563Z,98683.00
2022-11-09T10:05:12.001Z,98688.00
2022-11-09T10:07:01.129Z,98683.00
2022-11-09T10:08:51.297Z,98690.00
2022-11-09T10:10:44.466Z,98688.00
2022-11-09T10:12:34.824Z,98699.00
2022-11-09T10:14:41.639Z,98695.00
2022-11-09T10:16:28.155Z,98690.00
2022-11-09T10:18:25.895Z,98690.00
2022-11-09T10:20:11.251Z,98699.00
2022-11-09T10:21:54.429Z,98696.00
2022-11-09T10:23:44.709Z,98694.00
2022-11-09T10:25:57.670Z,98697.00
2022-11-09T10:27:28.769Z,98690.00
2022-11-09T10:29:17.244Z,98690.00
2022-11-09T10:30:51.407Z,98695.00
2022-11-09T10:32:25.863Z,98695.00
2022-11-09T10:34:04.955Z,98692.00
2022-11-09T10:35:44.956Z,98696.00
2022-11-09T10:37:27.529Z,98712.00
2022-11-09T10:39:02.568Z,98708.00
2022-11-09T10:41:02.051Z,98707.00
2022-11-09T10:42:59.645Z,98711.00
2022-11-09T10:44:52.796Z,98707.00
2022-11-09T10:47:10.216Z,98709.00
2022-11-09T10:49:22.296Z,98703.00
2022-11-09T10:51:39.485Z,98706.00
2022-11-09T10:53:35.040Z,98707.00
2022-11-09T10:55:30.555Z,98707.00
2022-11-09T10:57:25.674Z,98705.00
2022-11-09T10:59:46.016Z,98702.00
2022-11-09T11:01:39.264Z,98703.00
2022-11-09T11:03:37.063Z,98714.00
2022-11-09T11:05:34.772Z,98700.00
2022-11-09T11:07:28.031Z,98711.00
2022-11-09T11:09:22.114Z,98708.00
2022-11-09T11:11:36.739Z,98711.00
2022-11-09T11:13:30.339Z,98710.00
2022-11-09T11:15:30.871Z,98714.00
2022-11-09T11:17:27.147Z,98713.00
2022-11-09T11:19:36.726Z,98718.00
2022-11-09T11:21:31.170Z,98720.00
2022-11-09T11:23:26.847Z,98714.00
2022-11-09T11:25:22.535Z,98718.00
2022-11-09T11:27:25.223Z,98731.00
2022-11-09T11:29:39.894Z,98711.00
2022-11-09T11:31:34.706Z,98721.00
2022-11-09T11:33:29.220Z,98722.00
2022-11-09T11:35:31.736Z,98729.00
2022-11-09T11:37:46.129Z,98731.00
2022-11-09T11:39:57.113Z,98727.00
2022-11-09T11:42:10.804Z,98732.00
2022-11-09T11:44:18.104Z,98726.00
2022-11-09T11:46:25.748Z,98734.00
2022-11-09T11:48:54.650Z,98730.00
2022-11-09T11:50:57.228Z,98728.00
2022-11-09T11:53:13.186Z,98727.00
2022-11-09T11:55:27.222Z,98724.00
2022-11-09T11:57:34.949Z,98733.00
2022-11-09T12:00:01.571Z,98739.00
2022-11-09T12:02:25.244Z,98730.00
2022-11-09T12:04:42.336Z,98730.00
2022-11-09T12:06:56.782Z,98737.00
2022-11-09T12:09:08.856Z,98735.00
2022-11-09T12:11:16.647Z,98727.00
2022-11-09T12:13:28.468Z,98736.00
2022-11-09T12:15:58.280Z,98726.00
2022-11-09T12:18:05.864Z,98741.00
2022-11-09T12:20:24.128Z,98732.00
2022-11-09T12:22:30.822Z,98726.00
2022-11-09T12:24:37.934Z,98732.00
2022-11-09T12:27:10.783Z,98736.00
2022-11-09T12:29:18.754Z,98741.00
2022-11-09T12:31:31.087Z,98737.00
2022-11-09T12:33:43.210Z,98726.00
2022-11-09T12:35:46.799Z,98740.00
2022-11-09T12:37:47.856Z,98737.00
2022-11-09T12:39:46.325Z,98733.00
2022-11-09T12:41:41.564Z,98736.00
2022-11-09T12:43:45.939Z,98733.00
2022-11-09T12:45:41.492Z,98724.00
2022-11-09T12:47:42.472Z,98740.00
2022-11-09T12:49:39.054Z,98733.00
2022-11-09T12:51:35.378Z,98737.00
2022-11-09T12:53:34.376Z,98738.00
2022-11-09T12:55:40.993Z,98731.00
2022-11-09T12:57:34.225Z,98737.00
2022-11-09T12:59:48.003Z,98733.00
2022-11-09T13:01:55.418Z,98735.00
2022-11-09T13:03:57.362Z,98728.00
2022-11-09T13:06:10.866Z,98735.00
2022-11-09T13:08:16.357Z,98735.00
2022-11-09T13:10:29.031Z,98735.00
2022-11-09T13:12:37.686Z,98736.00
2022-11-09T13:14:40.272Z,98739.00
2022-11-09T13:16:36.389Z,98728.00
2022-11-09T13:18:52.434Z,98732.00
2022-11-09T13:20:55.416Z,98731.00
2022-11-09T13:23:02.028Z,98732.00
2022-11-09T13:25:00.195Z,98737.00
2022-11-09T13:27:00.188Z,98731.00
2022-11-09T13:29:23.741Z,98748.00
2022-11-09T13:32:25.021Z,98742.00
2022-11-09T13:34:44.470Z,98750.00
2022-11-09T13:36:37.730Z,98744.00
2022-11-09T13:38:33.209Z,98746.00
2022-11-09T13:40:45.660Z,98758.00
2022-11-09T13:42:38.981Z,98761.00
2022-11-09T13:44:35.757Z,98756.00
2022-11-09T13:46:39.253Z,98759.00
2022-11-09T13:48:45.989Z,98755.00
2022-11-09T13:50:39.510Z,98755.00
2022-11-09T13:52:53.539Z,98756.00
2022-11-09T13:54:47.277Z,98752.00
2022-11-09T13:56:42.489Z,98755.00
2022-11-09T13:58:39.602Z,98755.00
2022-11-09T14:00:32.836Z,98759.00
2022-11-09T14:02:28.309Z,98770.00
2022-11-09T14:04:26.548Z,98765.00
2022-11-09T14:06:20.762Z,98767.00
2022-11-09T14:08:23.687Z,98763.00
2022-11-09T14:10:33.773Z,98773.00
2022-11-09T14:12:42.939Z,98773.00
2022-11-09T14:15:00.149Z,98779.00
2022-11-09T14:17:01.590Z,98780.00
2022-11-09T14:19:11.457Z,98795.00
2022-11-09T14:21:21.660Z,98794.00
2022-11-09T14:23:18.582Z,98795.00
2022-11-09T14:25:17.578Z,98788.00
2022-11-09T14:27:18.738Z,98793.00
2022-11-09T14:29:23.309Z,98798.00
2022-11-09T14:31:28.242Z,98791.00
2022-11-09T14:33:25.249Z,98804.00
2022-11-09T14:35:29.577Z,98805.00
2022-11-09T14:37:24.184Z,98803.00
2022-11-09T14:39:30.928Z,98808.00
2022-11-09T14:41:27.441Z,98805.00
2022-11-09T14:43:29.347Z,98806.00
2022-11-09T14:45:23.190Z,98819.00
2022-11-09T14:47:19.384Z,98804.00
2022-11-09T14:49:14.069Z,98819.00
2022-11-09T14:51:12.017Z,98810.00
2022-11-09T14:53:07.871Z,98818.00
2022-11-09T14:55:02.020Z,98817.00
2022-11-09T14:56:56.449Z,98828.00
2022-11-09T14:58:50.720Z,98832.00
2022-11-09T15:00:46.166Z,98826.00
2022-11-09T15:02:39.462Z,98836.00
2022-11-09T15:04:52.158Z,98843.00
2022-11-09T15:06:52.618Z,98847.00
2022-11-09T15:08:56.407Z,98843.00
2022-11-09T15:10:51.300Z,98850.00
2022-11-09T15:12:51.132Z,98843.00
2022-11-09T15:14:51.483Z,98851.00
2022-11-09T15:16:46.701Z,98860.00
2022-11-09T15:18:47.589Z,98853.00
2022-11-09T15:20:40.934Z,98851.00
2022-11-09T15:22:52.096Z,98859.00
2022-11-09T15:24:50.085Z,98862.00
2022-11-09T15:26:46.649Z,98861.00
2022-11-09T15:28:47.979Z,98856.00
2022-11-09T15:30:46.033Z,98859.00
2022-11-09T15:32:41.169Z,98856.00
2022-11-09T15:34:39.499Z,98853.00
2022-11-09T15:36:36.096Z,98856.00
2022-11-09T15:38:36.502Z,98848.00
2022-11-09T15:40:31.076Z,98855.00
2022-11-09T15:42:25.700Z,98860.00
2022-11-09T15:44:22.181Z,98867.00
2022-11-09T15:46:19.251Z,98870.00
2022-11-09T15:48:12.432Z,98877.00
2022-11-09T15:50:17.592Z,98870.00
2022-11-09T15:52:13.289Z,98875.00
2022-11-09T15:54:06.822Z,98880.00
2022-11-09T15:56:02.066Z,98877.00
2022-11-09T15:57:55.454Z,98889.00
2022-11-09T15:59:51.057Z,98893.00
2022-11-09T16:01:44.338Z,98892.00
2022-11-09T16:03:37.468Z,98886.00
2022-11-09T16:05:30.680Z,98896.00
2022-11-09T16:07:24.346Z,98895.00
2022-11-09T16:09:17.642Z,98894.00
2022-11-09T16:11:12.157Z,98896.00
2022-11-09T16:13:06.352Z,98910.00
2022-11-09T16:14:59.772Z,98908.00
2022-11-09T16:16:52.887Z,98910.00
2022-11-09T16:18:46.048Z,98906.00
2022-11-09T16:20:40.235Z,98915.00
2022-11-09T16:22:34.674Z,98908.00
2022-11-09T16:24:27.764Z,98916.00
2022-11-09T16:26:22.732Z,98918.00
2022-11-09T16:28:16.291Z,98927.00
2022-11-09T16:30:11.875Z,98925.00
2022-11-09T16:32:05.295Z,98933.00
2022-11-09T16:33:58.404Z,98933.00
2022-11-09T16:35:51.926Z,98933.00
2022-11-09T16:37:46.645Z,98938.00
2022-11-09T16:39:40.327Z,98947.00
2022-11-09T16:41:36.112Z,98952.00
2022-11-09T16:43:32.116Z,98940.00
2022-11-09T16:45:29.159Z,98945.00
2022-11-09T16:47:26.264Z,98949.00
2022-11-09T16:49:19.536Z,98948.00
2022-11-09T16:51:12.602Z,98941.00
2022-11-09T16:53:05.943Z,98958.00
2022-11-09T16:54:59.436Z,98963.00
2022-11-09T16:56:54.829Z,98967.00
2022-11-09T16:58:48.355Z,98974.00
2022-11-09T17:01:09.684Z,98971.00
2022-11-09T17:03:03.621Z,98973.00
2022-11-09T17:04:57.016Z,98972.00
2022-11-09T17:06:50.730Z,98982.00
2022-11-09T17:08:43.970Z,98983.00
2022-11-09T17:10:42.252Z,98991.00
2022-11-09T17:12:36.818Z,98990.00
2022-11-09T17:14:30.467Z,98993.00
2022-11-09T17:16:23.897Z,98994.00
2022-11-09T17:18:18.601Z,99004.00
2022-11-09T17:20:13.755Z,99000.00
2022-11-09T17:22:07.469Z,99008.00
2022-11-09T17:24:01.313Z,99005.00
2022-11-09T17:25:59.703Z,99006.00
2022-11-09T17:27:54.296Z,99013.00
2022-11-09T17:29:47.399Z,99009.00
2022-11-09T17:31:40.480Z,99016.00
2022-11-09T17:33:33.558Z,99024.00
2022-11-09T17:35:26.878Z,99025.00
2022-11-09T17:37:20.425Z,99033.00
2022-11-09T17:39:13.510Z,99025.00
2022-11-09T17:41:09.404Z,99032.00
2022-11-09T17:43:05.081Z,99026.00
2022-11-09T17:44:58.345Z,99034.00
2022-11-09T17:46:51.494Z,99043.00
2022-11-09T17:48:47.305Z,99044.00
2022-11-09T17:50:40.753Z,99057.00
2022-11-09T17:52:33.806Z,99055.00
2022-11-09T17:54:32.587Z,99052.00
2022-11-09T17:56:28.796Z,99053.00
2022-11-09T17:58:24.013Z,99057.00
2022-11-09T18:00:19.043Z,99061.00
2022-11-09T18:02:12.207Z,99066.00
2022-11-09T18:04:07.237Z,99053.00
2022-11-09T18:06:00.439Z,99065.00
2022-11-09T18:07:53.641Z,99063.00
2022-11-09T18:09:46.792Z,99068.00
2022-11-09T18:11:39.925Z,99073.00
2022-11-09T18:13:34.798Z,99073.00
2022-11-09T18:15:28.262Z,99077.00
2022-11-09T18:17:21.364Z,99086.00
2022-11-09T18:19:14.865Z,99091.00
2022-11-09T18:21:09.621Z,99085.00
2022-11-09T18:23:02.956Z,99097.00
2022-11-09T18:24:56.044Z,99092.00
2022-11-09T18:26:49.212Z,99094.00
2022-11-09T18:28:43.817Z,99103.00
2022-11-09T18:30:41.779Z,99100.00
2022-11-09T18:32:35.180Z,99112.00
2022-11-09T18:34:29.279Z,99117.00
2022-11-09T18:36:23.415Z,99115.00
2022-11-09T18:38:19.952Z,99111.00
2022-11-09T18:40:14.149Z,99114.00
2022-11-09T18:42:07.482Z,99119.00
2022-11-09T18:44:02.756Z,99121.00
2022-11-09T18:45:58.130Z,99118.00
2022-11-09T18:47:51.404Z,99127.00
2022-11-09T18:49:44.749Z,99133.00
2022-11-09T18:51:37.907Z,99132.00
2022-11-09T18:53:37.085Z,99142.00
2022-11-09T18:55:30.352Z,99143.00
2022-11-09T18:57:23.652Z,99146.00
2022-11-09T18:59:18.173Z,99142.00
2022-11-09T19:01:12.469Z,99143.00
2022-11-09T19:03:05.830Z,99147.00
2022-11-09T19:04:59.361Z,99157.00
2022-11-09T19:06:54.247Z,99151.00
2022-11-09T19:09:05.458Z,99166.00
2022-11-09T19:11:05.578Z,99166.00
2022-11-09T19:12:59.153Z,99166.00
2022-11-09T19:14:53.681Z,99167.00
2022-11-09T19:16:47.929Z,99170.00
2022-11-09T19:18:41.459Z,99173.00
2022-11-09T19:20:34.600Z,99172.00
2022-11-09T19:22:29.248Z,99175.00
2022-11-09T19:24:26.772Z,99180.00
2022-11-09T19:26:20.961Z,99177.00
2022-11-09T19:28:14.161Z,99185.00
2022-11-09T19:30:10.590Z,99181.00
2022-11-09T19:32:04.628Z,99186.00
2022-11-09T19:33:58.072Z,99181.00
2022-11-09T19:36:15.004Z,99182.00
2022-11-09T19:38:06.598Z,99186.00
2022-11-09T19:40:02.305Z,99188.00
2022-11-09T19:41:55.951Z,99197.00
2022-11-09T19:43:51.176Z,99201.00
2022-11-09T19:45:45.686Z,99188.00
2022-11-09T19:47:39.001Z,99195.00
2022-11-09T19:49:32.378Z,99204.00
2022-11-09T19:51:26.170Z,99204.00
2022-11-09T19:53:19.963Z,99202.00
2022-11-09T19:55:13.168Z,99210.00
2022-11-09T19:57:06.238Z,99205.00
2022-11-09T19:59:02.794Z,99211.00
2022-11-09T20:01:04.797Z,99212.00
2022-11-09T20:02:59.560Z,99216.00
2022-11-09T20:04:53.888Z,99216.00
2022-11-09T20:06:47.002Z,99219.00
2022-11-09T20:08:40.792Z,99235.00
2022-11-09T20:10:37.629Z,99238.00
2022-11-09T20:12:48.503Z,99233.00
2022-11-09T20:14:41.740Z,99230.00
2022-11-09T20:16:38.271Z,99233.00
2022-11-09T20:18:31.513Z,99243.00
2022-11-09T20:20:24.600Z,99248.00
2022-11-09T20:22:17.730Z,99249.00
2022-11-09T20:24:12.365Z,99260.00
2022-11-09T20:26:06.347Z,99263.00
2022-11-09T20:27:59.469Z,99265.00
2022-11-09T20:29:53.635Z,99266.00
2022-11-09T20:31:48.445Z,99266.00
2022-11-09T20:33:41.719Z,99261.00
2022-11-09T20:35:34.969Z,99271.00
2022-11-09T20:37:28.162Z,99277.00
2022-11-09T20:39:21.368Z,99277.00
2022-11-09T20:41:14.792Z,99269.00